Time;durP1;ratioP1;P1;durP2;ratioP2;P2;SDS_P1;SDS_P2;PMS_P1;PMS_P2;Temp;Humidity;BMP_temperature;BMP_pressure;BME280_temperature;BME280_humidity;BME280_pressure;Samples;Min_cycle;Max_cycle;Signal;HPM_P1;HPM_P2
2023/04/21 00:04:34;;;;;;;59.47;37.90;;;;;;;8.33;98.77;97244.41;10384588;28;20079;-49
2023/04/21 00:09:33;;;;;;;;;;;;;;;8.22;98.66;97235.78;10401316;28;20071;-50
2023/04/21 00:14:32;;;;;;;49.47;31.35;;;;;;;8.08;98.87;97247.00;10401953;28;19917;-49
2023/04/21 00:19:31;;;;;;;53.42;32.97;;;;;;;7.92;99.31;97249.56;10400318;28;20028;-51
2023/04/21 00:24:30;;;;;;;61.67;38.85;;;;;;;7.82;99.13;97249.53;10401220;28;20036;-50
2023/04/21 00:29:29;;;;;;;60.17;38.10;;;;;;;7.77;99.20;97242.66;10400615;28;20434;-51
2023/04/21 00:34:28;;;;;;;70.75;40.53;;;;;;;7.72;99.06;97246.94;10404912;28;20210;-51
2023/04/21 00:39:27;;;;;;;;;;;;;;;7.65;98.85;97240.91;10409578;28;20088;-50
2023/04/21 00:44:25;;;;;;;71.70;40.40;;;;;;;7.56;99.56;97226.25;10408332;28;19955;-51
2023/04/21 00:49:25;;;;;;;69.97;39.65;;;;;;;7.50;99.29;97235.69;10407888;28;20040;-50
2023/04/21 00:54:26;;;;;;;;;;;;;;;7.29;99.43;97231.28;10408239;28;20576;-51
2023/04/21 00:59:25;;;;;;;68.10;39.10;;;;;;;7.18;99.48;97224.38;10408241;28;19951;-49
2023/04/21 01:04:24;;;;;;;59.95;36.55;;;;;;;7.15;99.22;97229.53;10407562;28;20427;-51
2023/04/21 01:09:23;;;;;;;57.75;35.08;;;;;;;6.96;99.67;97194.19;10406339;28;20078;-51
2023/04/21 01:14:22;;;;;;;63.50;35.55;;;;;;;6.78;99.58;97195.84;10407142;28;20100;-48
2023/04/21 01:19:21;;;;;;;69.38;41.85;;;;;;;6.92;98.80;97233.72;10405216;28;20039;-49
2023/04/21 01:24:20;;;;;;;;;;;;;;;6.74;100.00;97227.59;10406702;28;20119;-50
2023/04/21 01:29:19;;;;;;;73.68;34.47;;;;;;;6.78;100.00;97239.66;10407154;28;20013;-49
2023/04/21 01:34:18;;;;;;;58.33;32.72;;;;;;;6.69;100.00;97231.03;10406929;28;20120;-50
2023/04/21 01:39:17;;;;;;;53.05;31.95;;;;;;;6.74;100.00;97217.28;10407330;28;20040;-50
2023/04/21 01:44:17;;;;;;;58.63;31.67;;;;;;;6.73;99.97;97217.31;10407972;28;20060;-48
2023/04/21 01:49:16;;;;;;;59.55;32.20;;;;;;;6.70;100.00;97209.53;10409255;28;20064;-48
2023/04/21 01:54:15;;;;;;;;;;;;;;;6.62;100.00;97201.75;10408956;28;20068;-51
2023/04/21 01:59:13;;;;;;;56.40;30.52;;;;;;;6.56;100.00;97191.41;10409329;28;19982;-51
2023/04/21 02:04:12;;;;;;;59.40;30.63;;;;;;;6.53;100.00;97202.56;10408181;28;20079;-49
2023/04/21 02:09:11;;;;;;;41.75;25.55;;;;;;;5.93;100.00;97198.69;10408706;28;20107;-50
2023/04/21 02:14:10;;;;;;;45.20;25.10;;;;;;;6.04;99.90;97206.50;10408422;28;20111;-49
2023/04/21 02:19:09;;;;;;;48.88;27.95;;;;;;;5.57;100.00;97133.19;10407892;28;20032;-48
2023/04/21 02:24:08;;;;;;;49.97;27.08;;;;;;;5.97;100.00;97200.44;10407509;28;20083;-49
2023/04/21 02:29:07;;;;;;;44.92;26.17;;;;;;;6.04;100.00;97209.09;10408072;28;20046;-51
2023/04/21 02:34:06;;;;;;;52.60;30.10;;;;;;;5.76;100.00;97167.66;10406927;28;20494;-47
2023/04/21 02:39:05;;;;;;;59.45;31.08;;;;;;;6.01;100.00;97222.81;10406563;28;20063;-50
2023/04/21 02:44:05;;;;;;;70.70;33.97;;;;;;;5.87;100.00;97227.84;10402945;28;21350;-50
2023/04/21 02:49:04;;;;;;;78.28;31.73;;;;;;;5.86;100.00;97233.84;10402610;28;20083;-49
2023/04/21 02:54:03;;;;;;;119.85;37.58;;;;;;;5.92;100.00;97228.72;10402986;28;20051;-49
2023/04/21 02:59:01;;;;;;;;;;;;;;;5.68;100.00;97234.53;10404522;28;20060;-48
2023/04/21 03:04:00;;;;;;;116.88;35.33;;;;;;;5.64;100.00;97235.34;10402513;28;19978;-48
2023/04/21 03:09:00;;;;;;;112.15;32.70;;;;;;;5.22;100.00;97156.00;10402420;28;20028;-47
2023/04/21 03:13:59;;;;;;;183.40;40.08;;;;;;;5.79;100.00;97239.78;10401729;28;20079;-48
2023/04/21 03:18:58;;;;;;;108.18;34.63;;;;;;;5.78;100.00;97244.91;10402642;28;20024;-47
2023/04/21 03:23:57;;;;;;;94.53;32.92;;;;;;;5.49;100.00;97212.88;10401661;28;20506;-49
2023/04/21 03:28:55;;;;;;;99.85;33.90;;;;;;;5.66;100.00;97256.81;10402863;28;20029;-47
2023/04/21 03:33:54;;;;;;;59.83;30.40;;;;;;;5.83;100.00;97249.25;10400796;28;20115;-48
2023/04/21 03:38:53;;;;;;;66.95;31.55;;;;;;;5.94;100.00;97244.22;10402246;28;20036;-47
2023/04/21 03:43:52;;;;;;;79.47;36.03;;;;;;;6.00;100.00;97245.97;10401346;28;20474;-49
2023/04/21 03:48:51;;;;;;;174.73;44.75;;;;;;;6.03;100.00;97251.16;10402691;28;20140;-48
2023/04/21 03:53:50;;;;;;;130.70;42.13;;;;;;;5.98;100.00;97258.84;10400144;28;20056;-47
2023/04/21 03:58:49;;;;;;;140.48;45.88;;;;;;;5.36;100.00;97200.72;10401014;28;20115;-49
2023/04/21 04:03:48;;;;;;;217.15;53.00;;;;;;;5.73;100.00;97268.03;10400113;28;20155;-48
2023/04/21 04:08:47;;;;;;;112.88;46.95;;;;;;;5.73;100.00;97280.91;10401558;28;20127;-48
2023/04/21 04:13:46;;;;;;;152.40;54.10;;;;;;;5.69;100.00;97299.75;10400584;28;20344;-49
2023/04/21 04:18:45;;;;;;;131.48;61.75;;;;;;;5.87;100.00;97296.50;10400307;28;20039;-50
2023/04/21 04:23:44;;;;;;;90.32;47.63;;;;;;;6.00;100.00;97302.63;10398563;28;20130;-48
2023/04/21 04:28:43;;;;;;;95.15;47.90;;;;;;;6.22;100.00;97303.72;10399733;28;20118;-50
2023/04/21 04:33:43;;;;;;;73.45;40.95;;;;;;;6.41;100.00;97300.44;10400014;28;20554;-49
2023/04/21 04:38:42;;;;;;;147.60;51.85;;;;;;;6.52;100.00;97316.00;10399706;28;20121;-49
2023/04/21 04:43:42;;;;;;;121.85;43.10;;;;;;;5.99;100.00;97270.88;10402813;28;20048;-46
2023/04/21 04:48:41;;;;;;;186.98;41.40;;;;;;;6.02;100.00;97324.13;10402246;28;20075;-48
2023/04/21 04:53:40;;;;;;;92.68;30.55;;;;;;;6.06;100.00;97323.31;10401803;28;20104;-48
2023/04/21 04:58:39;;;;;;;84.05;30.73;;;;;;;6.32;100.00;97321.81;10399945;28;20067;-47
2023/04/21 05:03:38;;;;;;;79.43;28.63;;;;;;;6.56;100.00;97325.44;10399334;28;20047;-47
2023/04/21 05:08:39;;;;;;;57.00;27.33;;;;;;;6.85;100.00;97322.25;10402746;28;20074;-49
2023/04/21 05:13:37;;;;;;;67.88;26.10;;;;;;;7.01;100.00;97334.38;10400637;28;20076;-47
2023/04/21 05:18:37;;;;;;;60.83;25.52;;;;;;;7.07;97.54;97331.81;10404157;28;20025;-47
2023/04/21 05:23:37;;;;;;;48.83;25.23;;;;;;;7.25;98.25;97328.50;10404536;28;20153;-49
2023/04/21 05:28:36;;;;;;;49.25;30.10;;;;;;;7.48;98.34;97330.38;10401010;28;20075;-47
2023/04/21 05:33:35;;;;;;;58.53;35.85;;;;;;;7.65;98.15;97324.41;10401306;28;20127;-48
2023/04/21 05:38:35;;;;;;;73.00;43.80;;;;;;;7.83;97.31;97321.03;10403920;28;20066;-50
2023/04/21 05:43:34;;;;;;;79.68;47.63;;;;;;;8.00;96.80;97305.56;10405383;28;20424;-48
2023/04/21 05:48:33;;;;;;;80.47;49.08;;;;;;;7.96;96.06;97293.47;10404944;28;20052;-50
2023/04/21 05:53:32;;;;;;;;;;;;;;;8.17;95.32;97308.16;10402817;28;20064;-50
2023/04/21 05:58:32;;;;;;;84.95;49.85;;;;;;;8.32;93.65;97316.78;10404873;28;19956;-50
2023/04/21 06:03:32;;;;;;;71.47;43.67;;;;;;;8.08;94.57;97288.34;10403579;28;21837;-49
2023/04/21 06:08:32;;;;;;;58.83;37.08;;;;;;;8.15;93.97;97283.19;10403100;28;20064;-50
2023/04/21 06:13:31;;;;;;;46.75;31.95;;;;;;;8.45;94.03;97318.53;10400691;28;20111;-48
2023/04/21 06:18:30;;;;;;;41.47;29.30;;;;;;;8.42;96.33;97267.69;10402185;28;20033;-50
2023/04/21 06:23:29;;;;;;;32.80;24.20;;;;;;;9.18;93.77;97317.56;10399595;28;20020;-48
2023/04/21 06:28:27;;;;;;;26.23;19.20;;;;;;;9.63;91.31;97310.56;10407331;28;20120;-49
2023/04/21 06:33:27;;;;;;;25.27;18.92;;;;;;;9.91;89.21;97313.00;10406433;28;20040;-48
2023/04/21 06:38:26;;;;;;;21.63;16.80;;;;;;;10.04;88.26;97298.25;10407800;28;20111;-47
2023/04/21 06:43:25;;;;;;;25.38;18.20;;;;;;;10.05;85.77;97272.34;10403787;28;20058;-50
2023/04/21 06:48:25;;;;;;;24.83;20.17;;;;;;;10.00;85.55;97276.66;10404427;28;20107;-49
2023/04/21 06:53:24;;;;;;;22.42;17.08;;;;;;;10.13;86.67;97301.66;10400801;28;20140;-48
2023/04/21 06:58:23;;;;;;;20.33;15.30;;;;;;;10.10;84.88;97291.31;10402504;28;20024;-50
2023/04/21 07:03:21;;;;;;;20.58;17.25;;;;;;;10.12;87.05;97289.56;10401703;28;20721;-50
2023/04/21 07:08:20;;;;;;;24.90;19.00;;;;;;;10.31;86.70;97284.25;10400770;28;20542;-50
2023/04/21 07:13:20;;;;;;;46.58;30.00;;;;;;;10.46;87.33;97285.84;10401304;28;20438;-50
2023/04/21 07:18:18;;;;;;;;;;;;;;;10.53;86.89;97290.13;10403504;28;20068;-48
2023/04/21 07:23:17;;;;;;;31.73;25.88;;;;;;;10.56;86.14;97274.50;10406551;28;19916;-47
2023/04/21 07:28:16;;;;;;;31.17;25.58;;;;;;;10.71;86.89;97274.41;10405795;28;20067;-49
2023/04/21 07:33:15;;;;;;;30.35;24.13;;;;;;;10.79;85.26;97280.34;10403712;28;20029;-48
2023/04/21 07:38:14;;;;;;;;;;;;;;;10.69;85.42;97275.28;10404826;28;20063;-48
2023/04/21 07:43:13;;;;;;;23.05;19.25;;;;;;;10.96;86.51;97277.66;10405199;28;19962;-49
2023/04/21 07:48:13;;;;;;;29.42;21.50;;;;;;;11.01;86.14;97216.16;10404042;28;20056;-49
2023/04/21 07:53:12;;;;;;;26.45;19.80;;;;;;;12.05;84.99;97275.44;10402619;28;20115;-50
2023/04/21 07:58:10;;;;;;;;;;;;;;;12.84;84.17;97277.69;10405044;28;20078;-51
2023/04/21 08:03:09;;;;;;;21.35;17.38;;;;;;;13.35;78.40;97264.53;10403276;28;19992;-50
2023/04/21 08:08:08;;;;;;;;;;;;;;;13.95;76.58;97268.53;10401863;28;20032;-49
2023/04/21 08:13:07;;;;;;;20.75;14.10;;;;;;;14.50;71.29;97274.19;10398477;28;19935;-51
2023/04/21 08:18:06;;;;;;;;;;;;;;;15.12;67.39;97270.91;10400686;28;20030;-48
2023/04/21 08:23:05;;;;;;;17.05;13.13;;;;;;;15.86;68.34;97272.34;10397848;28;19962;-50
2023/04/21 08:28:04;;;;;;;;;;;;;;;16.48;59.84;97261.66;10381846;28;20124;-48
2023/04/21 08:33:03;;;;;;;14.57;8.00;;;;;;;17.04;59.01;97259.84;10398818;28;19916;-49
2023/04/21 08:38:02;;;;;;;9.30;6.70;;;;;;;17.51;50.29;97259.91;10399603;28;20040;-50
2023/04/21 08:43:01;;;;;;;11.43;7.28;;;;;;;17.71;50.56;97256.56;10389378;28;20524;-50
2023/04/21 08:48:03;;;;;;;10.80;7.35;;;;;;;18.15;50.43;97259.25;10392527;28;20044;-50
2023/04/21 08:53:02;;;;;;;11.38;7.30;;;;;;;17.97;51.42;97253.81;10397202;28;20112;-50
2023/04/21 08:58:03;;;;;;;11.30;6.88;;;;;;;17.57;50.04;97259.69;10394836;28;20028;-50
2023/04/21 09:03:04;;;;;;;13.43;8.98;;;;;;;17.26;51.12;97239.81;10396809;28;20116;-51
2023/04/21 09:08:17;;;;;;;10.63;6.15;;;;;;;17.40;49.54;97246.31;10397646;28;20131;-51
2023/04/21 09:13:17;;;;;;;9.73;6.50;;;;;;;17.56;50.93;97253.56;10407541;28;20459;-51
2023/04/21 09:18:18;;;;;;;8.20;6.40;;;;;;;16.48;49.49;97087.94;10406219;28;20067;-51
2023/04/21 09:23:20;;;;;;;9.70;6.32;;;;;;;17.05;48.58;97196.88;10403980;28;20127;-49
2023/04/21 09:28:19;;;;;;;9.48;6.45;;;;;;;17.52;50.85;97238.03;10406318;28;20143;-51
2023/04/21 09:33:18;;;;;;;8.60;6.63;;;;;;;17.98;48.59;97220.53;10406439;28;20033;-51
2023/04/21 09:38:21;;;;;;;8.02;6.07;;;;;;;18.26;49.57;97229.94;10404011;28;20072;-51
2023/04/21 09:43:20;;;;;;;9.55;6.53;;;;;;;18.66;46.81;97225.69;10387276;28;20056;-51
2023/04/21 09:48:22;;;;;;;12.63;6.75;;;;;;;18.20;45.71;97204.78;10406468;28;20104;-51
2023/04/21 09:53:26;;;;;;;11.23;6.63;;;;;;;17.79;46.79;97217.78;10394762;28;20119;-52
2023/04/21 09:58:29;;;;;;;9.63;6.20;;;;;;;17.62;48.10;97215.75;10393770;28;20148;-51
2023/04/21 10:03:30;;;;;;;10.52;6.70;;;;;;;17.32;47.94;97212.50;10396689;28;20095;-51
2023/04/21 10:08:29;;;;;;;9.88;6.63;;;;;;;17.13;48.65;97212.31;10404227;28;20067;-48
2023/04/21 10:13:30;;;;;;;9.25;6.57;;;;;;;17.00;48.45;97204.03;10404640;28;20127;-51
2023/04/21 10:18:29;;;;;;;9.55;6.57;;;;;;;16.79;48.24;97153.19;10399656;28;20119;-50
2023/04/21 10:23:30;;;;;;;8.77;6.65;;;;;;;16.98;48.93;97157.81;10404697;28;20056;-51
2023/04/21 10:28:44;;;;;;;13.80;8.45;;;;;;;16.94;48.01;97185.91;10401455;28;20116;-51
2023/04/21 10:34:10;;;;;;;7.10;5.90;;;;;;;17.10;48.01;97175.75;10401328;28;20108;-50
2023/04/21 10:39:11;;;;;;;10.48;5.88;;;;;;;17.53;47.95;97155.78;10403847;28;20104;-51
2023/04/21 10:44:12;;;;;;;7.03;5.75;;;;;;;18.23;45.79;97175.78;10402405;28;20147;-51
2023/04/21 10:49:21;;;;;;;8.65;5.82;;;;;;;18.66;43.88;97124.03;10401577;28;20159;-51
2023/04/21 10:54:21;;;;;;;8.27;6.45;;;;;;;19.45;44.81;97163.50;10401504;28;20127;-51
2023/04/21 10:59:21;;;;;;;9.05;5.13;;;;;;;19.57;40.51;97167.38;10403443;28;20140;-50
2023/04/21 11:04:21;;;;;;;12.05;7.70;;;;;;;17.23;59.57;97200.59;10395464;28;20103;-51
2023/04/21 11:09:20;;;;;;;9.68;7.80;;;;;;;14.83;72.62;97205.50;10401662;28;20056;-51
2023/04/21 11:14:19;;;;;;;13.45;10.25;;;;;;;13.77;78.30;97209.81;10400142;28;20136;-52
2023/04/21 11:19:23;;;;;;;13.68;9.38;;;;;;;13.50;78.89;97199.06;10402686;28;20083;-51
2023/04/21 11:24:22;;;;;;;14.85;11.55;;;;;;;13.78;85.11;97199.34;10394286;28;20541;-51
2023/04/21 11:29:21;;;;;;;12.40;9.65;;;;;;;14.36;88.60;97193.66;10379060;28;20125;-54
2023/04/21 11:34:21;;;;;;;10.55;7.93;;;;;;;14.98;91.36;97192.91;10396699;28;20108;-51
2023/04/21 11:39:20;;;;;;;11.27;7.57;;;;;;;15.09;90.54;97117.69;10397380;28;20470;-51
2023/04/21 11:44:40;;;;;;;11.88;8.02;;;;;;;16.05;92.23;97176.66;10397477;28;20135;-52
2023/04/21 11:49:59;;;;;;;14.75;9.02;;;;;;;16.46;91.25;97163.09;10392298;28;20123;-51
2023/04/21 11:55:00;;;;;;;9.10;6.93;;;;;;;15.86;65.86;97230.47;10398238;28;20120;-52
2023/04/21 12:00:01;;;;;;;10.27;5.57;;;;;;;14.27;63.87;97251.28;10382304;28;20174;-49
2023/04/21 12:05:03;;;;;;;13.05;7.53;;;;;;;12.71;70.93;97253.59;10393088;28;20143;-49
2023/04/21 12:10:32;;;;;;;11.88;7.65;;;;;;;11.92;77.90;97263.47;10394645;28;20170;-50
2023/04/21 12:15:31;;;;;;;13.25;8.70;;;;;;;11.40;82.46;97247.69;10381057;28;20132;-51
2023/04/21 12:20:30;;;;;;;;;;;;;;;11.31;82.08;97247.81;10400204;28;20485;-51
2023/04/21 12:25:29;;;;;;;9.40;6.85;;;;;;;11.53;85.33;97243.22;10394882;28;19908;-49
2023/04/21 12:30:28;;;;;;;15.50;10.00;;;;;;;11.85;89.09;97247.09;10404359;28;20116;-48
2023/04/21 12:35:27;;;;;;;10.40;8.52;;;;;;;12.51;93.01;97244.38;10405276;28;20029;-50
2023/04/21 12:40:26;;;;;;;13.00;8.82;;;;;;;13.28;95.58;97247.31;10407874;28;20551;-50
2023/04/21 12:45:25;;;;;;;;;;;;;;;14.12;96.51;97242.03;10408315;28;20521;-50
2023/04/21 12:50:24;;;;;;;9.27;7.22;;;;;;;14.90;92.04;97234.94;10406858;28;19926;-50
2023/04/21 12:55:23;;;;;;;;;;;;;;;15.55;88.79;97226.16;10407598;28;20040;-50
2023/04/21 13:00:22;;;;;;;9.30;6.77;;;;;;;16.10;84.51;97221.00;10404327;28;20424;-51
2023/04/21 13:05:21;;;;;;;;;;;;;;;16.72;83.52;97214.59;10405256;28;20025;-51
2023/04/21 13:10:20;;;;;;;7.97;6.07;;;;;;;17.21;80.11;97197.16;10403855;28;20020;-51
2023/04/21 13:15:19;;;;;;;6.97;4.90;;;;;;;17.65;75.21;97189.41;10402502;28;20171;-51
2023/04/21 13:20:19;;;;;;;8.48;5.13;;;;;;;17.83;71.32;97193.13;10404962;28;20064;-48
2023/04/21 13:25:18;;;;;;;7.57;5.72;;;;;;;18.01;69.42;97194.19;10400473;28;20114;-51
2023/04/21 13:30:17;;;;;;;8.27;5.57;;;;;;;18.22;65.85;97187.19;10402283;28;20170;-51
2023/04/21 13:35:16;;;;;;;7.20;5.40;;;;;;;18.13;60.53;97190.22;10397625;28;20123;-51
2023/04/21 13:40:15;;;;;;;10.88;6.00;;;;;;;17.69;59.99;97148.16;10396647;28;20139;-51
2023/04/21 13:45:14;;;;;;;8.65;5.80;;;;;;;17.74;58.99;97186.41;10402523;28;20530;-51
2023/04/21 13:50:13;;;;;;;7.38;5.10;;;;;;;17.72;63.09;97179.53;10400277;28;20528;-51
2023/04/21 13:55:12;;;;;;;7.05;5.53;;;;;;;17.82;64.06;97180.06;10397006;28;20036;-51
2023/04/21 14:00:12;;;;;;;9.48;6.22;;;;;;;17.96;59.95;97189.09;10404070;28;20082;-51
2023/04/21 14:05:11;;;;;;;7.72;5.65;;;;;;;18.31;60.02;97188.59;10404938;28;20115;-51
2023/04/21 14:10:11;;;;;;;9.82;5.65;;;;;;;18.85;60.97;97181.09;10405805;28;20482;-51
2023/04/21 14:15:11;;;;;;;6.57;5.15;;;;;;;19.23;57.33;97156.59;10402509;28;20498;-51
2023/04/21 14:20:10;;;;;;;8.23;6.65;;;;;;;19.48;54.37;97160.72;10385398;28;20562;-51
2023/04/21 14:25:09;;;;;;;6.53;4.88;;;;;;;19.75;51.51;97158.59;10404225;28;20528;-51
2023/04/21 14:30:09;;;;;;;8.63;5.90;;;;;;;19.74;48.83;97145.50;10405247;28;20505;-51
2023/04/21 14:35:08;;;;;;;7.45;5.63;;;;;;;19.64;50.15;97158.25;10404026;28;20125;-50
2023/04/21 14:40:07;;;;;;;11.13;7.63;;;;;;;19.46;46.53;97149.41;10403478;28;20120;-51
2023/04/21 14:45:07;;;;;;;8.23;6.15;;;;;;;18.97;46.38;97138.47;10404267;28;20068;-51
2023/04/21 14:50:07;;;;;;;10.90;5.97;;;;;;;18.90;49.49;97139.69;10403498;28;20084;-51
2023/04/21 14:55:06;;;;;;;13.40;7.65;;;;;;;18.87;50.74;97145.94;10402315;28;20124;-51
2023/04/21 15:00:06;;;;;;;11.60;7.28;;;;;;;18.80;51.26;97158.47;10398849;28;20539;-51
2023/04/21 15:05:07;;;;;;;9.93;6.93;;;;;;;18.78;49.12;97157.72;10403642;28;20059;-51
2023/04/21 15:10:07;;;;;;;8.82;5.43;;;;;;;18.41;47.27;97158.41;10398097;28;20557;-51
2023/04/21 15:15:09;;;;;;;13.90;8.27;;;;;;;18.11;47.76;97161.38;10404305;28;20048;-51
2023/04/21 15:20:10;;;;;;;12.70;8.02;;;;;;;17.49;50.68;97162.03;10404650;28;20087;-52
2023/04/21 15:25:11;;;;;;;14.20;7.88;;;;;;;17.27;53.98;97159.38;10406104;28;20035;-50
2023/04/21 15:30:12;;;;;;;13.43;7.63;;;;;;;17.04;54.53;97145.34;10405340;28;20136;-51
2023/04/21 15:35:11;;;;;;;11.77;7.97;;;;;;;16.61;54.20;97159.13;10405344;28;20055;-52
2023/04/21 15:40:13;;;;;;;10.38;7.60;;;;;;;16.43;56.08;97150.13;10387462;28;20040;-51
2023/04/21 15:45:11;;;;;;;10.00;7.60;;;;;;;16.50;58.56;97144.59;10385775;28;20537;-52
2023/04/21 15:50:11;;;;;;;14.52;8.77;;;;;;;16.36;58.98;97110.19;10383843;28;20395;-52
2023/04/21 15:55:10;;;;;;;19.08;11.02;;;;;;;16.61;59.77;97156.50;10407671;28;20163;-51
2023/04/21 16:00:11;;;;;;;19.20;11.80;;;;;;;16.49;60.37;97150.75;10404153;28;20151;-51
2023/04/21 16:05:10;;;;;;;23.63;16.10;;;;;;;16.34;59.17;97156.50;10402512;28;20063;-50
2023/04/21 16:10:10;;;;;;;27.42;18.70;;;;;;;15.84;61.70;97175.56;10402750;28;20051;-52
2023/04/21 16:15:10;;;;;;;13.82;8.80;;;;;;;14.98;60.01;97209.44;10400194;28;20079;-52
2023/04/21 16:20:10;;;;;;;14.38;9.00;;;;;;;13.91;69.60;97228.63;10398931;28;20166;-51
2023/04/21 16:25:12;;;;;;;18.88;7.97;;;;;;;13.07;77.65;97246.84;10399287;28;20558;-51
2023/04/21 16:30:11;;;;;;;17.33;8.27;;;;;;;12.23;80.75;97259.56;10397833;28;20132;-51
2023/04/21 16:35:10;;;;;;;13.73;8.00;;;;;;;11.77;83.43;97265.41;10399948;28;20127;-51
2023/04/21 16:40:09;;;;;;;;;;;;;;;11.71;85.94;97264.63;10400286;28;20040;-51
2023/04/21 16:45:09;;;;;;;13.23;8.17;;;;;;;11.72;87.87;97267.22;10400965;28;19943;-49
2023/04/21 16:50:08;;;;;;;13.85;9.27;;;;;;;11.77;89.81;97270.63;10400758;28;20124;-50
2023/04/21 16:55:08;;;;;;;15.52;9.73;;;;;;;11.78;91.51;97287.94;10400907;28;20531;-50
2023/04/21 17:00:07;;;;;;;15.20;10.02;;;;;;;11.80;91.60;97298.31;10380949;28;20106;-51
2023/04/21 17:05:06;;;;;;;23.60;16.30;;;;;;;11.69;93.25;97288.06;10402263;28;20055;-50
2023/04/21 17:10:06;;;;;;;32.17;21.77;;;;;;;10.66;96.21;97218.19;10399020;28;20198;-51
2023/04/21 17:15:06;;;;;;;30.23;20.65;;;;;;;11.14;96.62;97309.47;10401320;28;20140;-50
2023/04/21 17:20:05;;;;;;;15.23;12.13;;;;;;;10.89;96.75;97309.72;10407008;28;20071;-49
2023/04/21 17:25:05;;;;;;;16.55;10.82;;;;;;;10.99;96.52;97324.34;10406509;28;20056;-49
2023/04/21 17:30:05;;;;;;;20.38;14.77;;;;;;;10.79;96.11;97271.72;10398804;28;20566;-50
2023/04/21 17:35:04;;;;;;;18.52;13.80;;;;;;;11.18;96.38;97344.94;10405012;28;20116;-48
2023/04/21 17:40:04;;;;;;;21.95;16.08;;;;;;;11.15;97.04;97342.34;10406737;28;20122;-49
2023/04/21 17:45:06;;;;;;;19.75;16.33;;;;;;;11.24;96.83;97340.56;10406937;28;20058;-49
2023/04/21 17:50:07;;;;;;;21.52;16.60;;;;;;;11.33;97.43;97349.97;10403435;28;20072;-49
2023/04/21 17:55:07;;;;;;;31.60;24.17;;;;;;;11.32;97.16;97361.25;10408473;28;20126;-49
2023/04/21 18:00:10;;;;;;;34.55;25.15;;;;;;;10.96;97.78;97363.31;10404451;28;20123;-49
2023/04/21 18:05:12;;;;;;;25.42;19.50;;;;;;;10.78;97.82;97358.25;10405836;28;20072;-49
2023/04/21 18:10:11;;;;;;;20.83;16.58;;;;;;;10.77;98.53;97317.59;10405359;28;20486;-51
2023/04/21 18:15:11;;;;;;;20.85;15.35;;;;;;;10.64;98.51;97308.19;10405234;28;20103;-51
2023/04/21 18:20:11;;;;;;;21.75;16.02;;;;;;;10.77;98.87;97336.59;10369525;28;20071;-50
2023/04/21 18:25:11;;;;;;;22.45;17.25;;;;;;;10.81;98.01;97327.06;10401914;28;20071;-49
2023/04/21 18:30:10;;;;;;;20.38;15.15;;;;;;;10.69;98.14;97322.00;10402771;28;20078;-49
2023/04/21 18:35:09;;;;;;;;;;;;;;;10.61;98.33;97351.47;10404516;28;20115;-50
2023/04/21 18:40:08;;;;;;;20.63;16.08;;;;;;;10.39;98.91;97347.28;10402453;28;19955;-51
2023/04/21 18:45:08;;;;;;;27.15;20.30;;;;;;;10.39;99.66;97311.81;10402973;28;20423;-50
2023/04/21 18:50:07;;;;;;;29.10;22.40;;;;;;;10.44;99.36;97270.28;10399946;28;20189;-51
2023/04/21 18:55:07;;;;;;;36.17;27.42;;;;;;;10.51;99.94;97284.94;10400893;28;20119;-51
2023/04/21 19:00:08;;;;;;;30.85;24.15;;;;;;;10.56;99.61;97296.13;10401862;28;20076;-51
2023/04/21 19:05:08;;;;;;;31.25;24.52;;;;;;;10.23;98.73;97317.13;10402501;28;20525;-51
2023/04/21 19:10:08;;;;;;;27.60;17.80;;;;;;;9.80;100.00;97314.81;10400748;28;20490;-49
2023/04/21 19:15:07;;;;;;;29.30;21.63;;;;;;;9.48;100.00;97267.44;10384310;28;20075;-52
2023/04/21 19:20:07;;;;;;;23.20;18.02;;;;;;;9.60;100.00;97305.38;10401067;28;20184;-50
2023/04/21 19:25:07;;;;;;;25.05;20.60;;;;;;;9.58;100.00;97307.13;10401447;28;20063;-50
2023/04/21 19:30:07;;;;;;;24.67;16.33;;;;;;;9.49;100.00;97282.13;10400654;28;20098;-50
2023/04/21 19:35:06;;;;;;;24.65;17.38;;;;;;;9.83;100.00;97317.38;10401485;28;20517;-52
2023/04/21 19:40:06;;;;;;;25.50;19.33;;;;;;;9.95;99.33;97325.09;10402230;28;20595;-49
2023/04/21 19:45:07;;;;;;;26.10;19.13;;;;;;;10.05;98.70;97320.69;10386553;28;20106;-51
2023/04/21 19:50:07;;;;;;;28.27;19.92;;;;;;;9.72;99.38;97261.31;10400835;28;20582;-49
2023/04/21 19:55:06;;;;;;;33.70;25.75;;;;;;;9.93;98.72;97330.28;10382635;28;20116;-51
2023/04/21 20:00:10;;;;;;;30.13;23.35;;;;;;;10.05;98.31;97339.72;10401886;28;20111;-50
2023/04/21 20:05:09;;;;;;;26.55;19.45;;;;;;;9.95;98.36;97322.50;10400599;28;20116;-51
2023/04/21 20:10:08;;;;;;;;;;;;;;;10.07;97.35;97360.44;10401031;28;20060;-52
2023/04/21 20:15:07;;;;;;;40.27;27.07;;;;;;;9.87;96.82;97371.78;10401062;28;20496;-51
2023/04/21 20:20:08;;;;;;;26.10;19.48;;;;;;;9.61;98.46;97312.31;10399660;28;20078;-50
2023/04/21 20:25:07;;;;;;;24.77;17.60;;;;;;;9.44;97.61;97283.88;10401634;28;20128;-51
2023/04/21 20:30:06;;;;;;;26.40;18.42;;;;;;;10.05;98.58;97390.69;10401389;28;20111;-51
2023/04/21 20:35:06;;;;;;;34.95;24.92;;;;;;;10.07;98.24;97382.03;10399676;28;20127;-49
2023/04/21 20:40:07;;;;;;;32.47;22.75;;;;;;;10.04;98.26;97384.66;10400637;28;20833;-50
2023/04/21 20:45:07;;;;;;;25.63;18.73;;;;;;;10.02;98.14;97388.13;10382816;28;20072;-49
2023/04/21 20:50:07;;;;;;;24.80;18.48;;;;;;;9.76;97.66;97368.38;10400515;28;20076;-50
2023/04/21 20:55:06;;;;;;;24.55;17.55;;;;;;;9.95;98.22;97382.97;10407462;28;20076;-49
2023/04/21 21:00:05;;;;;;;18.27;14.45;;;;;;;9.87;98.20;97383.88;10407464;28;20056;-49
2023/04/21 21:05:05;;;;;;;16.80;12.82;;;;;;;9.94;98.31;97395.94;10408338;28;20056;-49
2023/04/21 21:10:04;;;;;;;27.88;17.23;;;;;;;9.25;98.60;97383.16;10407228;28;20509;-52
2023/04/21 21:15:04;;;;;;;32.67;23.63;;;;;;;9.43;100.00;97449.63;10406754;28;20148;-49
2023/04/21 21:20:03;;;;;;;27.95;21.23;;;;;;;9.13;100.00;97446.16;10406738;28;20143;-49
2023/04/21 21:25:03;;;;;;;31.13;23.52;;;;;;;9.29;100.00;97442.72;10405738;28;20566;-50
2023/04/21 21:30:02;;;;;;;;;;;;;;;9.44;100.00;97448.75;10406970;28;20090;-50
2023/04/21 21:35:01;;;;;;;34.08;25.08;;;;;;;9.59;100.00;97453.06;10406583;28;20430;-50
2023/04/21 21:40:00;;;;;;;;;;;;;;;9.70;100.00;97456.47;10406857;28;20094;-50
2023/04/21 21:44:59;;;;;;;34.17;24.30;;;;;;;9.88;100.00;97440.88;10406402;28;20009;-51
2023/04/21 21:49:58;;;;;;;;;;;;;;;9.90;100.00;97443.47;10406851;28;20203;-50
2023/04/21 21:54:57;;;;;;;26.33;20.35;;;;;;;9.93;100.00;97438.28;10405750;28;19958;-49
2023/04/21 21:59:59;;;;;;;25.13;18.67;;;;;;;9.97;100.00;97450.34;10405778;28;20127;-49
2023/04/21 22:04:58;;;;;;;22.17;16.63;;;;;;;10.10;99.36;97454.63;10404289;28;20068;-51
2023/04/21 22:10:00;;;;;;;;;;;;;;;10.20;99.12;97440.75;10403568;28;20116;-50
2023/04/21 22:14:59;;;;;;;20.17;16.25;;;;;;;10.23;98.03;97451.97;10401604;28;20075;-50
2023/04/21 22:19:57;;;;;;;;;;;;;;;10.33;97.94;97443.28;10400792;28;20112;-49
2023/04/21 22:24:56;;;;;;;20.10;15.82;;;;;;;10.30;98.06;97417.38;10399730;28;19987;-52
2023/04/21 22:29:55;;;;;;;25.63;18.55;;;;;;;10.03;97.27;97375.16;10400483;28;20356;-51
2023/04/21 22:34:54;;;;;;;;;;;;;;;10.29;97.41;97431.22;10403841;28;20095;-50
2023/04/21 22:39:55;;;;;;;25.17;19.33;;;;;;;10.20;97.54;97424.34;10404464;28;19956;-49
2023/04/21 22:44:55;;;;;;;27.50;20.98;;;;;;;10.19;96.96;97415.72;10406666;28;20475;-50
2023/04/21 22:49:54;;;;;;;32.28;22.80;;;;;;;10.03;97.23;97408.88;10406825;28;20087;-50
2023/04/21 22:54:53;;;;;;;33.20;22.70;;;;;;;10.01;96.97;97405.41;10405568;28;20123;-49
2023/04/21 22:59:52;;;;;;;34.17;23.50;;;;;;;9.99;96.89;97401.97;10406263;28;20484;-50
2023/04/21 23:04:51;;;;;;;32.67;24.38;;;;;;;9.98;96.87;97390.75;10406150;28;20032;-49
2023/04/21 23:09:50;;;;;;;35.50;24.20;;;;;;;9.95;96.68;97385.56;10405882;28;20028;-49